sensor_id;sensor_type;location;lat;lon;timestamp;temperature;humidity
31765;DHT22;18338;53.240;8.798;2022-11-20T00:01:27;2.00;99.90
31765;DHT22;18338;53.240;8.798;2022-11-20T00:03:55;2.00;99.90
31765;DHT22;18338;53.240;8.798;2022-11-20T00:06:23;1.90;99.90
31765;DHT22;18338;53.240;8.798;2022-11-20T00:08:50;1.90;99.90
31765;DHT22;18338;53.240;8.798;2022-11-20T00:11:19;2.00;99.90
31765;DHT22;18338;53.240;8.798;2022-11-20T00:13:49;2.00;99.90
31765;DHT22;18338;53.240;8.798;2022-11-20T00:16:18;2.00;99.90
31765;DHT22;18338;53.240;8.798;2022-11-20T00:18:46;1.90;99.90
31765;DHT22;18338;53.240;8.798;2022-11-20T00:21:19;1.80;99.90
31765;DHT22;18338;53.240;8.798;2022-11-20T00:23:48;1.90;99.90
31765;DHT22;18338;53.240;8.798;2022-11-20T00:26:17;1.90;99.90
31765;DHT22;18338;53.240;8.798;2022-11-20T00:28:49;1.90;99.90
31765;DHT22;18338;53.240;8.798;2022-11-20T00:31:17;1.90;99.90
31765;DHT22;18338;53.240;8.798;2022-11-20T00:33:44;1.80;99.90
31765;DHT22;18338;53.240;8.798;2022-11-20T00:36:20;1.80;99.90
31765;DHT22;18338;53.240;8.798;2022-11-20T00:38:51;1.80;99.90
31765;DHT22;18338;53.240;8.798;2022-11-20T00:41:18;1.70;99.90
31765;DHT22;18338;53.240;8.798;2022-11-20T00:43:45;1.70;99.90
31765;DHT22;18338;53.240;8.798;2022-11-20T00:46:19;1.70;99.90
31765;DHT22;18338;53.240;8.798;2022-11-20T00:48:47;1.70;99.90
31765;DHT22;18338;53.240;8.798;2022-11-20T00:51:16;1.70;99.90
31765;DHT22;18338;53.240;8.798;2022-11-20T00:53:44;1.70;99.90
31765;DHT22;18338;53.240;8.798;2022-11-20T00:56:13;1.80;99.90
31765;DHT22;18338;53.240;8.798;2022-11-20T00:58:42;1.80;99.90
31765;DHT22;18338;53.240;8.798;2022-11-20T01:01:11;1.80;99.90
31765;DHT22;18338;53.240;8.798;2022-11-20T01:03:43;1.80;99.90
31765;DHT22;18338;53.240;8.798;2022-11-20T01:06:14;1.80;99.90
31765;DHT22;18338;53.240;8.798;2022-11-20T01:08:41;1.80;99.90
31765;DHT22;18338;53.240;8.798;2022-11-20T01:11:11;1.80;99.90
31765;DHT22;18338;53.240;8.798;2022-11-20T01:13:39;1.90;99.90
31765;DHT22;18338;53.240;8.798;2022-11-20T01:18:41;1.90;99.90
31765;DHT22;18338;53.240;8.798;2022-11-20T01:21:11;1.90;99.90
31765;DHT22;18338;53.240;8.798;2022-11-20T01:23:41;1.90;99.90
31765;DHT22;18338;53.240;8.798;2022-11-20T01:26:10;1.90;99.90
31765;DHT22;18338;53.240;8.798;2022-11-20T01:28:38;1.90;99.90
31765;DHT22;18338;53.240;8.798;2022-11-20T01:31:18;1.80;99.90
31765;DHT22;18338;53.240;8.798;2022-11-20T01:33:46;1.90;99.90
31765;DHT22;18338;53.240;8.798;2022-11-20T01:36:15;1.80;99.90
31765;DHT22;18338;53.240;8.798;2022-11-20T01:38:42;1.80;99.90
31765;DHT22;18338;53.240;8.798;2022-11-20T01:41:10;1.80;99.90
31765;DHT22;18338;53.240;8.798;2022-11-20T01:43:37;1.80;99.90
31765;DHT22;18338;53.240;8.798;2022-11-20T01:46:19;1.80;99.90
31765;DHT22;18338;53.240;8.798;2022-11-20T01:54:03;1.70;99.90
31765;DHT22;18338;53.240;8.798;2022-11-20T01:56:36;1.70;99.90
31765;DHT22;18338;53.240;8.798;2022-11-20T01:59:05;1.70;99.90
31765;DHT22;18338;53.240;8.798;2022-11-20T02:01:33;1.60;99.90
31765;DHT22;18338;53.240;8.798;2022-11-20T02:04:00;1.60;99.90
31765;DHT22;18338;53.240;8.798;2022-11-20T02:06:35;1.60;99.90
31765;DHT22;18338;53.240;8.798;2022-11-20T02:09:03;1.60;99.90
31765;DHT22;18338;53.240;8.798;2022-11-20T02:11:30;1.50;99.90
31765;DHT22;18338;53.240;8.798;2022-11-20T02:13:58;1.50;99.90
31765;DHT22;18338;53.240;8.798;2022-11-20T02:16:27;1.50;99.90
31765;DHT22;18338;53.240;8.798;2022-11-20T02:18:57;1.40;99.90
31765;DHT22;18338;53.240;8.798;2022-11-20T02:21:40;1.40;99.90
31765;DHT22;18338;53.240;8.798;2022-11-20T02:24:15;1.30;99.90
31765;DHT22;18338;53.240;8.798;2022-11-20T02:26:50;1.30;99.90
31765;DHT22;18338;53.240;8.798;2022-11-20T02:29:24;1.30;99.90
31765;DHT22;18338;53.240;8.798;2022-11-20T02:31:53;1.30;99.90
31765;DHT22;18338;53.240;8.798;2022-11-20T02:34:21;1.30;99.90
31765;DHT22;18338;53.240;8.798;2022-11-20T02:36:49;1.30;99.90
31765;DHT22;18338;53.240;8.798;2022-11-20T02:39:19;1.30;99.90
31765;DHT22;18338;53.240;8.798;2022-11-20T02:41:47;1.30;99.90
31765;DHT22;18338;53.240;8.798;2022-11-20T02:44:14;1.30;99.90
31765;DHT22;18338;53.240;8.798;2022-11-20T02:46:40;1.30;99.90
31765;DHT22;18338;53.240;8.798;2022-11-20T02:49:07;1.30;99.90
31765;DHT22;18338;53.240;8.798;2022-11-20T02:51:34;1.30;99.90
31765;DHT22;18338;53.240;8.798;2022-11-20T02:54:01;1.30;99.90
31765;DHT22;18338;53.240;8.798;2022-11-20T02:56:27;1.30;99.90
31765;DHT22;18338;53.240;8.798;2022-11-20T02:58:54;1.30;99.90
31765;DHT22;18338;53.240;8.798;2022-11-20T03:01:22;1.30;99.90
31765;DHT22;18338;53.240;8.798;2022-11-20T03:03:49;1.20;99.90
31765;DHT22;18338;53.240;8.798;2022-11-20T03:06:16;1.20;99.90
31765;DHT22;18338;53.240;8.798;2022-11-20T03:08:43;1.20;99.90
31765;DHT22;18338;53.240;8.798;2022-11-20T03:11:10;1.20;99.90
31765;DHT22;18338;53.240;8.798;2022-11-20T03:13:37;1.20;99.90
31765;DHT22;18338;53.240;8.798;2022-11-20T03:16:08;1.20;99.90
31765;DHT22;18338;53.240;8.798;2022-11-20T03:18:35;1.30;99.90
31765;DHT22;18338;53.240;8.798;2022-11-20T03:21:02;1.20;99.90
31765;DHT22;18338;53.240;8.798;2022-11-20T03:23:31;1.20;99.90
31765;DHT22;18338;53.240;8.798;2022-11-20T03:26:28;1.20;99.90
31765;DHT22;18338;53.240;8.798;2022-11-20T03:28:59;1.20;99.90
31765;DHT22;18338;53.240;8.798;2022-11-20T03:31:35;1.20;99.90
31765;DHT22;18338;53.240;8.798;2022-11-20T03:34:03;1.20;99.90
31765;DHT22;18338;53.240;8.798;2022-11-20T03:36:30;1.30;99.90
31765;DHT22;18338;53.240;8.798;2022-11-20T03:38:57;1.20;99.90
31765;DHT22;18338;53.240;8.798;2022-11-20T03:41:29;1.30;99.90
31765;DHT22;18338;53.240;8.798;2022-11-20T03:43:59;1.20;99.90
31765;DHT22;18338;53.240;8.798;2022-11-20T03:46:26;1.20;99.90
31765;DHT22;18338;53.240;8.798;2022-11-20T03:48:54;1.20;99.90
31765;DHT22;18338;53.240;8.798;2022-11-20T03:51:29;1.30;99.90
31765;DHT22;18338;53.240;8.798;2022-11-20T03:54:01;1.30;99.90
31765;DHT22;18338;53.240;8.798;2022-11-20T03:56:29;1.30;99.90
31765;DHT22;18338;53.240;8.798;2022-11-20T03:58:57;1.30;99.90
31765;DHT22;18338;53.240;8.798;2022-11-20T04:01:32;1.30;99.90
31765;DHT22;18338;53.240;8.798;2022-11-20T04:03:59;1.30;99.90
31765;DHT22;18338;53.240;8.798;2022-11-20T04:06:34;1.30;99.90
31765;DHT22;18338;53.240;8.798;2022-11-20T04:09:01;1.30;99.90
31765;DHT22;18338;53.240;8.798;2022-11-20T04:11:30;1.30;99.90
31765;DHT22;18338;53.240;8.798;2022-11-20T04:14:00;1.30;99.90
31765;DHT22;18338;53.240;8.798;2022-11-20T04:16:30;1.30;99.90
31765;DHT22;18338;53.240;8.798;2022-11-20T04:18:59;1.30;99.90
31765;DHT22;18338;53.240;8.798;2022-11-20T04:21:26;1.30;99.90
31765;DHT22;18338;53.240;8.798;2022-11-20T04:23:53;1.30;99.90
31765;DHT22;18338;53.240;8.798;2022-11-20T04:26:21;1.30;99.90
31765;DHT22;18338;53.240;8.798;2022-11-20T04:28:48;1.30;99.90
31765;DHT22;18338;53.240;8.798;2022-11-20T04:31:18;1.30;99.90
31765;DHT22;18338;53.240;8.798;2022-11-20T04:33:45;1.30;99.90
31765;DHT22;18338;53.240;8.798;2022-11-20T04:36:20;1.20;99.90
31765;DHT22;18338;53.240;8.798;2022-11-20T04:38:50;1.30;99.90
31765;DHT22;18338;53.240;8.798;2022-11-20T04:41:24;1.30;99.90
31765;DHT22;18338;53.240;8.798;2022-11-20T04:43:57;1.40;99.90
31765;DHT22;18338;53.240;8.798;2022-11-20T04:46:27;1.30;99.90
31765;DHT22;18338;53.240;8.798;2022-11-20T04:48:54;1.40;99.90
31765;DHT22;18338;53.240;8.798;2022-11-20T04:51:21;1.40;99.90
31765;DHT22;18338;53.240;8.798;2022-11-20T04:53:48;1.30;99.90
31765;DHT22;18338;53.240;8.798;2022-11-20T04:56:15;1.30;99.90
31765;DHT22;18338;53.240;8.798;2022-11-20T04:58:42;1.30;99.90
31765;DHT22;18338;53.240;8.798;2022-11-20T05:01:14;1.30;99.90
31765;DHT22;18338;53.240;8.798;2022-11-20T05:03:42;1.30;99.90
31765;DHT22;18338;53.240;8.798;2022-11-20T05:06:11;1.30;99.90
31765;DHT22;18338;53.240;8.798;2022-11-20T05:08:38;1.30;99.90
31765;DHT22;18338;53.240;8.798;2022-11-20T05:11:10;1.40;99.90
31765;DHT22;18338;53.240;8.798;2022-11-20T05:13:38;1.40;99.90
31765;DHT22;18338;53.240;8.798;2022-11-20T05:16:13;1.40;99.90
31765;DHT22;18338;53.240;8.798;2022-11-20T05:18:41;1.40;99.90
31765;DHT22;18338;53.240;8.798;2022-11-20T05:21:09;1.30;99.90
31765;DHT22;18338;53.240;8.798;2022-11-20T05:23:37;1.40;99.90
31765;DHT22;18338;53.240;8.798;2022-11-20T05:26:05;1.40;99.90
31765;DHT22;18338;53.240;8.798;2022-11-20T05:28:32;1.40;99.90
31765;DHT22;18338;53.240;8.798;2022-11-20T05:31:14;1.40;99.90
31765;DHT22;18338;53.240;8.798;2022-11-20T05:33:42;1.30;99.90
31765;DHT22;18338;53.240;8.798;2022-11-20T05:36:11;1.30;99.90
31765;DHT22;18338;53.240;8.798;2022-11-20T05:38:38;1.30;99.90
31765;DHT22;18338;53.240;8.798;2022-11-20T05:41:13;1.30;99.90
31765;DHT22;18338;53.240;8.798;2022-11-20T05:43:42;1.30;99.90
31765;DHT22;18338;53.240;8.798;2022-11-20T05:46:12;1.30;99.90
31765;DHT22;18338;53.240;8.798;2022-11-20T05:48:41;1.30;99.90
31765;DHT22;18338;53.240;8.798;2022-11-20T05:51:10;1.30;99.90
31765;DHT22;18338;53.240;8.798;2022-11-20T05:53:37;1.30;99.90
31765;DHT22;18338;53.240;8.798;2022-11-20T05:56:13;1.30;99.90
31765;DHT22;18338;53.240;8.798;2022-11-20T05:58:41;1.30;99.90
31765;DHT22;18338;53.240;8.798;2022-11-20T06:01:16;1.30;99.90
31765;DHT22;18338;53.240;8.798;2022-11-20T06:03:44;1.30;99.90
31765;DHT22;18338;53.240;8.798;2022-11-20T06:06:15;1.30;99.90
31765;DHT22;18338;53.240;8.798;2022-11-20T06:08:42;1.30;99.90
31765;DHT22;18338;53.240;8.798;2022-11-20T06:11:10;1.30;99.90
31765;DHT22;18338;53.240;8.798;2022-11-20T06:13:38;1.30;99.90
31765;DHT22;18338;53.240;8.798;2022-11-20T06:16:08;1.40;99.90
31765;DHT22;18338;53.240;8.798;2022-11-20T06:18:35;1.30;99.90
31765;DHT22;18338;53.240;8.798;2022-11-20T06:21:11;1.30;99.90
31765;DHT22;18338;53.240;8.798;2022-11-20T06:23:38;1.30;99.90
31765;DHT22;18338;53.240;8.798;2022-11-20T06:26:10;1.30;99.90
31765;DHT22;18338;53.240;8.798;2022-11-20T06:28:38;1.30;99.90
31765;DHT22;18338;53.240;8.798;2022-11-20T06:31:06;1.30;99.90
31765;DHT22;18338;53.240;8.798;2022-11-20T06:33:33;1.40;99.90
31765;DHT22;18338;53.240;8.798;2022-11-20T06:36:00;1.30;99.90
31765;DHT22;18338;53.240;8.798;2022-11-20T06:38:35;1.30;99.90
31765;DHT22;18338;53.240;8.798;2022-11-20T06:41:03;1.40;99.90
31765;DHT22;18338;53.240;8.798;2022-11-20T06:43:30;1.30;99.90
31765;DHT22;18338;53.240;8.798;2022-11-20T06:45:58;1.20;99.90
31765;DHT22;18338;53.240;8.798;2022-11-20T06:48:29;1.30;99.90
31765;DHT22;18338;53.240;8.798;2022-11-20T06:50:56;1.30;99.90
31765;DHT22;18338;53.240;8.798;2022-11-20T06:53:23;1.30;99.90
31765;DHT22;18338;53.240;8.798;2022-11-20T06:55:51;1.20;99.90
31765;DHT22;18338;53.240;8.798;2022-11-20T06:58:18;1.20;99.90
31765;DHT22;18338;53.240;8.798;2022-11-20T07:00:44;1.20;99.90
31765;DHT22;18338;53.240;8.798;2022-11-20T07:03:12;1.20;99.90
31765;DHT22;18338;53.240;8.798;2022-11-20T07:05:39;1.20;99.90
31765;DHT22;18338;53.240;8.798;2022-11-20T07:08:06;1.10;99.90
31765;DHT22;18338;53.240;8.798;2022-11-20T07:10:33;1.20;99.90
31765;DHT22;18338;53.240;8.798;2022-11-20T07:12:59;1.20;99.90
31765;DHT22;18338;53.240;8.798;2022-11-20T07:15:26;1.30;99.90
31765;DHT22;18338;53.240;8.798;2022-11-20T07:17:53;1.30;99.90
31765;DHT22;18338;53.240;8.798;2022-11-20T07:20:19;1.30;99.90
31765;DHT22;18338;53.240;8.798;2022-11-20T07:22:46;1.30;99.90
31765;DHT22;18338;53.240;8.798;2022-11-20T07:25:13;1.20;99.90
31765;DHT22;18338;53.240;8.798;2022-11-20T07:27:40;1.30;99.90
31765;DHT22;18338;53.240;8.798;2022-11-20T07:30:07;1.20;99.90
31765;DHT22;18338;53.240;8.798;2022-11-20T07:32:33;1.20;99.90
31765;DHT22;18338;53.240;8.798;2022-11-20T07:35:00;1.30;99.90
31765;DHT22;18338;53.240;8.798;2022-11-20T07:37:26;1.40;99.90
31765;DHT22;18338;53.240;8.798;2022-11-20T07:39:53;1.50;99.90
31765;DHT22;18338;53.240;8.798;2022-11-20T07:42:20;1.60;99.90
31765;DHT22;18338;53.240;8.798;2022-11-20T07:44:46;1.60;99.90
31765;DHT22;18338;53.240;8.798;2022-11-20T07:47:13;1.70;99.90
31765;DHT22;18338;53.240;8.798;2022-11-20T07:49:39;1.70;99.90
31765;DHT22;18338;53.240;8.798;2022-11-20T07:52:06;1.70;99.90
31765;DHT22;18338;53.240;8.798;2022-11-20T07:54:33;1.80;99.90
31765;DHT22;18338;53.240;8.798;2022-11-20T07:56:59;1.90;99.90
31765;DHT22;18338;53.240;8.798;2022-11-20T07:59:26;1.90;99.90
31765;DHT22;18338;53.240;8.798;2022-11-20T08:01:53;2.00;99.90
31765;DHT22;18338;53.240;8.798;2022-11-20T08:04:20;2.00;99.90
31765;DHT22;18338;53.240;8.798;2022-11-20T08:06:46;2.00;99.90
31765;DHT22;18338;53.240;8.798;2022-11-20T08:09:13;2.00;99.90
31765;DHT22;18338;53.240;8.798;2022-11-20T08:11:40;2.10;99.90
31765;DHT22;18338;53.240;8.798;2022-11-20T08:14:25;2.10;99.90
31765;DHT22;18338;53.240;8.798;2022-11-20T08:16:53;2.30;99.90
31765;DHT22;18338;53.240;8.798;2022-11-20T08:19:20;2.40;99.90
31765;DHT22;18338;53.240;8.798;2022-11-20T08:21:47;2.50;99.90
31765;DHT22;18338;53.240;8.798;2022-11-20T08:24:14;2.50;99.90
31765;DHT22;18338;53.240;8.798;2022-11-20T08:26:41;2.60;99.90
31765;DHT22;18338;53.240;8.798;2022-11-20T08:29:07;2.60;99.90
31765;DHT22;18338;53.240;8.798;2022-11-20T08:31:34;2.50;99.90
31765;DHT22;18338;53.240;8.798;2022-11-20T08:34:01;2.50;99.90
31765;DHT22;18338;53.240;8.798;2022-11-20T08:36:34;2.50;99.90
31765;DHT22;18338;53.240;8.798;2022-11-20T08:39:02;2.50;99.90
31765;DHT22;18338;53.240;8.798;2022-11-20T08:41:29;2.50;99.90
31765;DHT22;18338;53.240;8.798;2022-11-20T08:44:01;2.50;99.90
31765;DHT22;18338;53.240;8.798;2022-11-20T08:46:35;2.40;99.90
31765;DHT22;18338;53.240;8.798;2022-11-20T08:49:13;2.40;99.90
31765;DHT22;18338;53.240;8.798;2022-11-20T08:51:41;2.40;99.90
31765;DHT22;18338;53.240;8.798;2022-11-20T08:54:08;2.40;99.90
31765;DHT22;18338;53.240;8.798;2022-11-20T08:56:35;2.50;99.90
31765;DHT22;18338;53.240;8.798;2022-11-20T08:59:02;2.50;99.90
31765;DHT22;18338;53.240;8.798;2022-11-20T09:01:49;2.50;99.90
31765;DHT22;18338;53.240;8.798;2022-11-20T09:04:16;2.50;99.90
31765;DHT22;18338;53.240;8.798;2022-11-20T09:06:43;2.60;99.90
31765;DHT22;18338;53.240;8.798;2022-11-20T09:09:09;2.80;99.90
31765;DHT22;18338;53.240;8.798;2022-11-20T09:11:36;2.80;99.90
31765;DHT22;18338;53.240;8.798;2022-11-20T09:14:02;2.80;99.90
31765;DHT22;18338;53.240;8.798;2022-11-20T09:16:30;2.90;99.90
31765;DHT22;18338;53.240;8.798;2022-11-20T09:18:58;2.90;99.90
31765;DHT22;18338;53.240;8.798;2022-11-20T09:21:44;2.80;99.90
31765;DHT22;18338;53.240;8.798;2022-11-20T09:24:11;2.70;99.90
31765;DHT22;18338;53.240;8.798;2022-11-20T09:26:38;2.70;99.90
31765;DHT22;18338;53.240;8.798;2022-11-20T09:29:04;2.80;99.90
31765;DHT22;18338;53.240;8.798;2022-11-20T09:31:31;2.70;99.90
31765;DHT22;18338;53.240;8.798;2022-11-20T09:33:58;2.60;99.90
31765;DHT22;18338;53.240;8.798;2022-11-20T09:36:24;2.60;99.90
31765;DHT22;18338;53.240;8.798;2022-11-20T09:38:51;2.60;99.90
31765;DHT22;18338;53.240;8.798;2022-11-20T09:41:36;2.60;99.90
31765;DHT22;18338;53.240;8.798;2022-11-20T09:44:37;2.60;99.90
31765;DHT22;18338;53.240;8.798;2022-11-20T09:47:44;2.50;99.90
31765;DHT22;18338;53.240;8.798;2022-11-20T09:55:36;2.40;99.90
31765;DHT22;18338;53.240;8.798;2022-11-20T09:58:06;2.40;99.90
31765;DHT22;18338;53.240;8.798;2022-11-20T10:00:35;2.40;99.90
31765;DHT22;18338;53.240;8.798;2022-11-20T10:03:18;2.40;99.90
31765;DHT22;18338;53.240;8.798;2022-11-20T10:05:51;2.40;99.90
31765;DHT22;18338;53.240;8.798;2022-11-20T10:10:56;2.40;99.90
31765;DHT22;18338;53.240;8.798;2022-11-20T10:22:13;2.90;99.90
31765;DHT22;18338;53.240;8.798;2022-11-20T10:25:04;3.00;99.90
31765;DHT22;18338;53.240;8.798;2022-11-20T10:27:43;3.10;99.90
31765;DHT22;18338;53.240;8.798;2022-11-20T10:30:15;3.20;99.90
31765;DHT22;18338;53.240;8.798;2022-11-20T10:32:47;3.30;99.90
31765;DHT22;18338;53.240;8.798;2022-11-20T10:35:28;3.30;99.90
31765;DHT22;18338;53.240;8.798;2022-11-20T10:38:00;3.40;99.90
31765;DHT22;18338;53.240;8.798;2022-11-20T10:40:44;3.60;99.90
31765;DHT22;18338;53.240;8.798;2022-11-20T10:43:21;4.00;99.90
31765;DHT22;18338;53.240;8.798;2022-11-20T10:46:02;4.50;99.90
31765;DHT22;18338;53.240;8.798;2022-11-20T10:48:32;4.90;99.90
31765;DHT22;18338;53.240;8.798;2022-11-20T10:56:20;7.10;99.90
31765;DHT22;18338;53.240;8.798;2022-11-20T11:01:45;8.50;99.90
31765;DHT22;18338;53.240;8.798;2022-11-20T11:04:46;10.40;99.90
31765;DHT22;18338;53.240;8.798;2022-11-20T11:07:23;13.80;99.90
31765;DHT22;18338;53.240;8.798;2022-11-20T11:09:55;13.60;99.90
31765;DHT22;18338;53.240;8.798;2022-11-20T11:12:24;11.90;99.90
31765;DHT22;18338;53.240;8.798;2022-11-20T11:14:56;10.50;99.90
31765;DHT22;18338;53.240;8.798;2022-11-20T11:17:26;9.10;99.90
31765;DHT22;18338;53.240;8.798;2022-11-20T11:20:03;8.00;99.90
31765;DHT22;18338;53.240;8.798;2022-11-20T11:22:32;6.70;99.90
31765;DHT22;18338;53.240;8.798;2022-11-20T11:25:01;5.80;99.90
31765;DHT22;18338;53.240;8.798;2022-11-20T11:27:28;4.90;99.90
31765;DHT22;18338;53.240;8.798;2022-11-20T11:30:10;4.20;99.90
31765;DHT22;18338;53.240;8.798;2022-11-20T11:32:37;3.70;99.90
31765;DHT22;18338;53.240;8.798;2022-11-20T11:35:06;3.40;99.90
31765;DHT22;18338;53.240;8.798;2022-11-20T11:37:35;3.30;99.90
31765;DHT22;18338;53.240;8.798;2022-11-20T11:40:04;3.20;99.90
31765;DHT22;18338;53.240;8.798;2022-11-20T11:42:58;3.10;99.90
31765;DHT22;18338;53.240;8.798;2022-11-20T11:45:26;2.90;99.90
31765;DHT22;18338;53.240;8.798;2022-11-20T11:47:55;3.20;99.90
31765;DHT22;18338;53.240;8.798;2022-11-20T11:50:27;3.80;99.90
31765;DHT22;18338;53.240;8.798;2022-11-20T11:53:14;3.90;99.90
31765;DHT22;18338;53.240;8.798;2022-11-20T11:55:58;4.50;99.90
31765;DHT22;18338;53.240;8.798;2022-11-20T11:58:47;5.10;99.90
31765;DHT22;18338;53.240;8.798;2022-11-20T12:01:41;6.80;99.90
31765;DHT22;18338;53.240;8.798;2022-11-20T12:04:43;7.20;99.90
31765;DHT22;18338;53.240;8.798;2022-11-20T12:16:03;8.20;99.90
31765;DHT22;18338;53.240;8.798;2022-11-20T12:18:30;8.60;99.90
31765;DHT22;18338;53.240;8.798;2022-11-20T12:23:53;6.90;99.90
31765;DHT22;18338;53.240;8.798;2022-11-20T12:26:42;6.90;99.90
31765;DHT22;18338;53.240;8.798;2022-11-20T12:37:49;15.70;99.90
31765;DHT22;18338;53.240;8.798;2022-11-20T12:40:28;14.60;99.80
31765;DHT22;18338;53.240;8.798;2022-11-20T12:43:09;12.80;99.90
31765;DHT22;18338;53.240;8.798;2022-11-20T12:48:42;12.50;99.90
31765;DHT22;18338;53.240;8.798;2022-11-20T12:54:36;14.10;99.90
31765;DHT22;18338;53.240;8.798;2022-11-20T13:03:07;12.50;99.90
31765;DHT22;18338;53.240;8.798;2022-11-20T13:09:01;12.10;99.90
31765;DHT22;18338;53.240;8.798;2022-11-20T13:11:32;10.10;99.90
31765;DHT22;18338;53.240;8.798;2022-11-20T13:14:26;7.90;99.90
31765;DHT22;18338;53.240;8.798;2022-11-20T13:17:05;6.20;99.90
31765;DHT22;18338;53.240;8.798;2022-11-20T13:19:35;6.60;99.90
31765;DHT22;18338;53.240;8.798;2022-11-20T13:22:02;9.20;99.90
31765;DHT22;18338;53.240;8.798;2022-11-20T13:24:30;10.70;99.90
31765;DHT22;18338;53.240;8.798;2022-11-20T13:29:32;12.10;99.90
31765;DHT22;18338;53.240;8.798;2022-11-20T13:34:34;10.00;99.90
31765;DHT22;18338;53.240;8.798;2022-11-20T13:37:02;8.60;99.90
31765;DHT22;18338;53.240;8.798;2022-11-20T13:39:34;7.50;99.90
31765;DHT22;18338;53.240;8.798;2022-11-20T13:44:37;5.90;99.90
31765;DHT22;18338;53.240;8.798;2022-11-20T13:47:20;5.30;99.90
31765;DHT22;18338;53.240;8.798;2022-11-20T13:49:47;4.90;99.90
31765;DHT22;18338;53.240;8.798;2022-11-20T13:55:54;4.30;99.90
31765;DHT22;18338;53.240;8.798;2022-11-20T14:01:25;4.10;99.90
31765;DHT22;18338;53.240;8.798;2022-11-20T14:03:53;4.30;99.90
31765;DHT22;18338;53.240;8.798;2022-11-20T14:06:44;4.80;99.90
31765;DHT22;18338;53.240;8.798;2022-11-20T14:09:23;6.90;99.90
31765;DHT22;18338;53.240;8.798;2022-11-20T14:11:50;8.60;99.90
31765;DHT22;18338;53.240;8.798;2022-11-20T14:14:19;9.80;99.90
31765;DHT22;18338;53.240;8.798;2022-11-20T14:16:48;10.80;99.90
31765;DHT22;18338;53.240;8.798;2022-11-20T14:19:29;11.60;99.90
31765;DHT22;18338;53.240;8.798;2022-11-20T14:24:40;12.00;99.90
31765;DHT22;18338;53.240;8.798;2022-11-20T14:27:20;11.80;99.90
31765;DHT22;18338;53.240;8.798;2022-11-20T14:29:49;10.20;99.90
31765;DHT22;18338;53.240;8.798;2022-11-20T14:32:18;8.80;99.90
31765;DHT22;18338;53.240;8.798;2022-11-20T14:34:48;7.10;99.90
31765;DHT22;18338;53.240;8.798;2022-11-20T14:37:23;5.60;99.90
31765;DHT22;18338;53.240;8.798;2022-11-20T14:39:52;4.60;99.90
31765;DHT22;18338;53.240;8.798;2022-11-20T14:42:30;4.00;99.90
31765;DHT22;18338;53.240;8.798;2022-11-20T14:44:59;3.30;99.90
31765;DHT22;18338;53.240;8.798;2022-11-20T14:47:29;2.80;99.90
31765;DHT22;18338;53.240;8.798;2022-11-20T14:49:57;2.50;99.90
31765;DHT22;18338;53.240;8.798;2022-11-20T14:52:31;2.10;99.90
31765;DHT22;18338;53.240;8.798;2022-11-20T14:54:58;1.90;99.90
31765;DHT22;18338;53.240;8.798;2022-11-20T14:57:37;1.70;99.90
31765;DHT22;18338;53.240;8.798;2022-11-20T15:02:42;1.30;99.90
31765;DHT22;18338;53.240;8.798;2022-11-20T15:05:09;1.10;99.90
31765;DHT22;18338;53.240;8.798;2022-11-20T15:07:40;0.80;99.90
31765;DHT22;18338;53.240;8.798;2022-11-20T15:10:12;0.70;99.90
31765;DHT22;18338;53.240;8.798;2022-11-20T15:12:56;0.70;99.90
31765;DHT22;18338;53.240;8.798;2022-11-20T15:15:40;0.60;99.90
31765;DHT22;18338;53.240;8.798;2022-11-20T15:18:13;0.50;99.90
31765;DHT22;18338;53.240;8.798;2022-11-20T15:20:41;0.50;99.90
31765;DHT22;18338;53.240;8.798;2022-11-20T15:23:12;0.30;99.90
31765;DHT22;18338;53.240;8.798;2022-11-20T15:25:41;0.10;99.90
31765;DHT22;18338;53.240;8.798;2022-11-20T15:28:23;0.10;99.90
31765;DHT22;18338;53.240;8.798;2022-11-20T15:30:54;0.00;99.90
31765;DHT22;18338;53.240;8.798;2022-11-20T15:33:23;-0.10;99.90
31765;DHT22;18338;53.240;8.798;2022-11-20T15:35:49;-0.10;99.90
31765;DHT22;18338;53.240;8.798;2022-11-20T15:38:17;-0.20;99.90
31765;DHT22;18338;53.240;8.798;2022-11-20T15:40:43;-0.40;99.90
31765;DHT22;18338;53.240;8.798;2022-11-20T15:43:11;-0.60;99.90
31765;DHT22;18338;53.240;8.798;2022-11-20T15:45:59;-0.80;99.90
31765;DHT22;18338;53.240;8.798;2022-11-20T15:48:29;-0.90;99.90
31765;DHT22;18338;53.240;8.798;2022-11-20T15:51:01;-1.10;99.90
31765;DHT22;18338;53.240;8.798;2022-11-20T15:53:30;-1.20;99.90
31765;DHT22;18338;53.240;8.798;2022-11-20T15:55:56;-1.30;99.90
31765;DHT22;18338;53.240;8.798;2022-11-20T15:58:23;-1.40;99.90
31765;DHT22;18338;53.240;8.798;2022-11-20T16:00:50;-1.40;99.90
31765;DHT22;18338;53.240;8.798;2022-11-20T16:03:18;-1.30;99.90
31765;DHT22;18338;53.240;8.798;2022-11-20T16:05:45;-1.30;99.90
31765;DHT22;18338;53.240;8.798;2022-11-20T16:08:16;-1.20;99.90
31765;DHT22;18338;53.240;8.798;2022-11-20T16:10:43;-1.20;99.90
31765;DHT22;18338;53.240;8.798;2022-11-20T16:13:15;-1.40;99.90
31765;DHT22;18338;53.240;8.798;2022-11-20T16:16:07;-1.50;99.90
31765;DHT22;18338;53.240;8.798;2022-11-20T16:18:36;-1.60;99.90
31765;DHT22;18338;53.240;8.798;2022-11-20T16:21:03;-1.70;99.90
31765;DHT22;18338;53.240;8.798;2022-11-20T16:23:29;-1.60;99.90
31765;DHT22;18338;53.240;8.798;2022-11-20T16:25:56;-1.60;99.90
31765;DHT22;18338;53.240;8.798;2022-11-20T16:28:24;-1.60;99.90
31765;DHT22;18338;53.240;8.798;2022-11-20T16:30:51;-1.70;99.90
31765;DHT22;18338;53.240;8.798;2022-11-20T16:33:18;-1.80;99.90
31765;DHT22;18338;53.240;8.798;2022-11-20T16:35:45;-1.90;99.90
31765;DHT22;18338;53.240;8.798;2022-11-20T16:38:11;-1.90;99.90
31765;DHT22;18338;53.240;8.798;2022-11-20T16:40:38;-1.90;99.90
31765;DHT22;18338;53.240;8.798;2022-11-20T16:43:10;-1.90;99.90
31765;DHT22;18338;53.240;8.798;2022-11-20T16:45:44;-1.80;99.90
31765;DHT22;18338;53.240;8.798;2022-11-20T16:48:14;-1.70;99.90
31765;DHT22;18338;53.240;8.798;2022-11-20T16:50:48;-1.60;99.90
31765;DHT22;18338;53.240;8.798;2022-11-20T16:53:19;-1.50;99.90
31765;DHT22;18338;53.240;8.798;2022-11-20T16:55:50;-1.30;99.90
31765;DHT22;18338;53.240;8.798;2022-11-20T16:58:17;-1.10;99.90
31765;DHT22;18338;53.240;8.798;2022-11-20T17:00:44;-0.90;99.90
31765;DHT22;18338;53.240;8.798;2022-11-20T17:03:17;-0.80;99.90
31765;DHT22;18338;53.240;8.798;2022-11-20T17:05:46;-0.60;99.90
31765;DHT22;18338;53.240;8.798;2022-11-20T17:08:13;-0.50;99.90
31765;DHT22;18338;53.240;8.798;2022-11-20T17:10:40;-0.30;99.90
31765;DHT22;18338;53.240;8.798;2022-11-20T17:13:08;-0.20;99.90
31765;DHT22;18338;53.240;8.798;2022-11-20T17:15:35;-0.20;99.90
31765;DHT22;18338;53.240;8.798;2022-11-20T17:18:02;-0.10;99.90
31765;DHT22;18338;53.240;8.798;2022-11-20T17:20:29;0.00;99.90
31765;DHT22;18338;53.240;8.798;2022-11-20T17:22:57;0.00;99.90
31765;DHT22;18338;53.240;8.798;2022-11-20T17:25:24;0.10;99.90
31765;DHT22;18338;53.240;8.798;2022-11-20T17:27:51;0.10;99.90
31765;DHT22;18338;53.240;8.798;2022-11-20T17:30:20;0.20;99.90
31765;DHT22;18338;53.240;8.798;2022-11-20T17:32:47;0.20;99.90